Time;durP1;ratioP1;P1;durP2;ratioP2;P2;SDS_P1;SDS_P2;PMS_P1;PMS_P2;Temp;Humidity;BMP_temperature;BMP_pressure;BME280_temperature;BME280_humidity;BME280_pressure;Samples;Min_cycle;Max_cycle;Signal;HPM_P1;HPM_P2
2022/02/05 00:02:32;;;;;;;1.02;0.28;;;5.30;87.60;;;;;;6152372;28;20102;-81
2022/02/05 00:05:40;;;;;;;6.75;0.50;;;5.20;87.80;;;;;;6152784;28;20054;-82
2022/02/05 00:08:55;;;;;;;3.22;0.80;;;5.10;88.00;;;;;;6152524;28;20478;-81
2022/02/05 00:12:16;;;;;;;1.65;0.60;;;4.90;88.20;;;;;;6152408;29;20133;-84
2022/02/05 00:15:29;;;;;;;5.25;0.65;;;4.80;88.50;;;;;;6152657;28;20051;-82
2022/02/05 00:39:19;;;;;;;2.63;0.50;;;4.40;89.00;;;;;;6157052;28;20104;-83
2022/02/05 00:42:38;;;;;;;5.00;0.70;;;4.30;89.10;;;;;;6157565;28;20051;-82
2022/02/05 00:45:42;;;;;;;;;;;4.30;89.50;;;;;;6159610;28;20048;-83
2022/02/05 00:48:44;;;;;;;6.57;2.10;;;4.20;89.30;;;;;;6158520;29;19922;-83
2022/02/05 00:51:51;;;;;;;3.25;0.68;;;4.10;89.10;;;;;;6158794;28;20054;-83
2022/02/05 00:55:01;;;;;;;5.35;0.85;;;4.10;89.30;;;;;;6157890;28;20054;-82
2022/02/05 00:58:05;;;;;;;4.32;0.85;;;4.10;89.60;;;;;;6157853;28;20047;-82
2022/02/05 01:01:09;;;;;;;4.43;0.88;;;4.00;90.10;;;;;;6157588;28;20524;-82
2022/02/05 01:04:11;;;;;;;5.80;0.80;;;4.10;90.00;;;;;;6157536;29;20051;-83
2022/02/05 01:07:13;;;;;;;3.28;0.75;;;4.00;89.60;;;;;;6156931;28;20134;-82
2022/02/05 01:13:22;;;;;;;1.88;0.73;;;4.00;90.00;;;;;;6206314;28;20104;-82
2022/02/05 01:16:31;;;;;;;1.23;0.50;;;3.90;89.90;;;;;;6205979;28;20407;-81
2022/02/05 01:20:08;;;;;;;4.88;0.40;;;4.00;89.30;;;;;;6205218;28;20049;-82
2022/02/05 01:23:14;;;;;;;6.18;1.15;;;3.90;89.40;;;;;;6205602;28;20053;-81
2022/02/05 01:26:24;;;;;;;2.22;1.05;;;3.80;89.30;;;;;;6205526;28;20416;-81
2022/02/05 01:29:36;;;;;;;3.38;0.85;;;3.90;89.90;;;;;;6205805;28;20451;-82
2022/02/05 01:32:42;;;;;;;1.60;0.80;;;3.90;90.00;;;;;;6205171;28;20100;-81
2022/02/05 01:35:57;;;;;;;1.80;0.60;;;3.90;90.00;;;;;;6205007;28;20108;-81
2022/02/05 01:49:15;;;;;;;7.38;1.65;;;3.90;90.50;;;;;;6203570;28;20685;-81
2022/02/05 01:52:22;;;;;;;6.50;1.30;;;3.90;90.60;;;;;;6204558;28;20524;-81
2022/02/05 01:55:35;;;;;;;5.63;1.38;;;3.90;90.60;;;;;;6204622;28;20627;-81
2022/02/05 01:58:52;;;;;;;8.73;2.03;;;3.90;90.70;;;;;;6204225;28;20042;-80
2022/02/05 02:05:14;;;;;;;4.85;1.35;;;3.90;90.70;;;;;;6204240;28;20054;-81
2022/02/05 02:11:44;;;;;;;2.47;1.30;;;3.80;90.90;;;;;;6203573;28;20046;-81
2022/02/05 02:14:53;;;;;;;9.20;1.50;;;3.80;91.00;;;;;;6204300;28;20054;-81
2022/02/05 02:21:26;;;;;;;8.77;1.77;;;3.80;91.20;;;;;;6203976;28;20046;-81
2022/02/05 02:24:36;;;;;;;7.00;1.73;;;3.80;91.40;;;;;;6203866;28;20054;-81
2022/02/05 02:27:44;;;;;;;7.07;2.15;;;3.80;91.50;;;;;;6203646;28;20065;-82
2022/02/05 02:30:55;;;;;;;14.90;2.88;;;3.80;91.50;;;;;;6203039;28;20522;-81
2022/02/05 02:34:00;;;;;;;6.15;1.98;;;3.80;91.50;;;;;;6202916;28;20397;-80
2022/02/05 02:37:09;;;;;;;10.65;2.05;;;3.80;91.50;;;;;;6203259;28;20046;-81
2022/02/05 02:40:22;;;;;;;4.93;1.33;;;3.80;91.50;;;;;;6203662;28;20053;-81
2022/02/05 02:43:27;;;;;;;4.05;1.30;;;3.80;91.60;;;;;;6203486;28;20046;-82
2022/02/05 02:46:29;;;;;;;2.28;1.27;;;3.80;91.60;;;;;;6203420;28;20051;-81
2022/02/05 02:49:44;;;;;;;2.25;1.58;;;3.80;91.50;;;;;;6203509;28;20050;-82
2022/02/05 02:56:32;;;;;;;7.00;2.13;;;3.80;91.70;;;;;;6203172;28;20118;-81
2022/02/05 02:59:47;;;;;;;7.50;2.10;;;3.80;91.50;;;;;;6204583;28;20046;-81
2022/02/05 03:02:49;;;;;;;5.20;1.55;;;3.80;91.60;;;;;;6202046;28;20047;-81
2022/02/05 03:05:50;;;;;;;6.25;2.10;;;3.80;91.60;;;;;;6203550;28;20422;-81
2022/02/05 03:08:54;;;;;;;2.83;1.58;;;3.70;91.60;;;;;;6202183;28;20567;-81
2022/02/05 03:11:56;;;;;;;8.13;1.98;;;3.70;91.60;;;;;;6202616;28;20089;-82
2022/02/05 03:14:57;;;;;;;7.22;1.73;;;3.70;91.60;;;;;;6202092;28;20046;-82
2022/02/05 03:18:04;;;;;;;3.05;1.35;;;3.70;91.60;;;;;;6201923;28;20685;-80
2022/02/05 03:21:06;;;;;;;13.27;2.15;;;3.70;91.60;;;;;;6202303;28;20157;-81
2022/02/05 03:24:10;;;;;;;5.03;1.98;;;3.70;91.60;;;;;;6202545;28;20504;-82
2022/02/05 03:27:13;;;;;;;10.07;2.17;;;3.80;91.60;;;;;;6201421;28;20054;-81
2022/02/05 03:30:15;;;;;;;8.07;1.70;;;3.80;91.60;;;;;;6201780;28;20109;-82
2022/02/05 03:33:17;;;;;;;2.05;1.40;;;3.80;91.60;;;;;;6202510;28;20053;-81
2022/02/05 03:36:19;;;;;;;9.10;2.72;;;3.80;91.60;;;;;;6202770;28;20136;-82
2022/02/05 03:39:22;;;;;;;7.40;1.25;;;3.80;91.60;;;;;;6201540;28;20057;-82
2022/02/05 03:42:24;;;;;;;3.88;2.25;;;3.80;91.40;;;;;;6202065;28;20567;-82
2022/02/05 03:45:25;;;;;;;4.72;1.73;;;3.70;91.50;;;;;;6201679;28;20065;-81
2022/02/05 03:48:27;;;;;;;8.10;2.38;;;3.80;91.50;;;;;;6203174;28;20077;-82
2022/02/05 03:51:29;;;;;;;10.30;1.33;;;3.80;91.50;;;;;;6200721;28;20042;-82
2022/02/05 03:54:33;;;;;;;10.13;1.50;;;3.90;91.60;;;;;;6201085;28;20711;-81
2022/02/05 03:57:35;;;;;;;2.15;1.13;;;4.00;91.30;;;;;;6201790;28;20129;-82
2022/02/05 04:00:37;;;;;;;3.45;1.42;;;4.00;91.10;;;;;;6201378;28;20050;-81
2022/02/05 04:03:39;;;;;;;6.97;1.25;;;4.00;91.20;;;;;;6201707;28;20046;-81
2022/02/05 04:06:40;;;;;;;5.18;1.00;;;3.90;91.00;;;;;;6203992;28;20053;-81
2022/02/05 04:09:46;;;;;;;7.43;1.35;;;3.90;91.10;;;;;;6207345;28;20058;-81
2022/02/05 04:16:21;;;;;;;7.88;1.10;;;3.80;91.10;;;;;;6207551;28;20050;-81
2022/02/05 04:19:23;;;;;;;6.78;3.10;;;3.80;91.20;;;;;;6207009;28;20389;-81
2022/02/05 04:22:25;;;;;;;15.80;7.50;;;3.80;91.30;;;;;;6206625;28;20164;-81
2022/02/05 04:25:29;;;;;;;16.05;8.05;;;3.80;91.20;;;;;;6207646;28;20106;-81
2022/02/05 04:28:30;;;;;;;12.23;2.67;;;3.80;91.30;;;;;;6208776;28;20061;-81
2022/02/05 04:31:32;;;;;;;2.40;0.95;;;3.80;91.20;;;;;;6207764;28;20125;-80
2022/02/05 04:34:34;;;;;;;5.82;2.05;;;3.80;91.20;;;;;;6207500;28;20058;-81
2022/02/05 04:37:36;;;;;;;48.20;19.67;;;3.80;91.30;;;;;;6207838;28;20053;-81
2022/02/05 04:40:44;;;;;;;4.32;2.28;;;3.70;91.30;;;;;;6206798;28;20050;-82
2022/02/05 04:44:07;;;;;;;12.50;1.45;;;3.70;91.20;;;;;;6205510;28;20053;-81
2022/02/05 04:47:38;;;;;;;3.60;0.95;;;3.70;91.30;;;;;;6205593;28;20050;-81
2022/02/05 04:51:09;;;;;;;9.35;2.10;;;3.70;91.30;;;;;;6205578;28;20176;-81
2022/02/05 04:54:36;;;;;;;7.40;3.03;;;3.70;91.50;;;;;;6204537;28;20054;-81
2022/02/05 05:01:12;;;;;;;4.15;0.85;;;3.60;91.30;;;;;;6204945;28;20046;-81
2022/02/05 05:04:25;;;;;;;1.73;0.63;;;3.60;91.50;;;;;;6206100;28;20492;-81
2022/02/05 05:07:57;;;;;;;2.40;1.02;;;3.70;91.50;;;;;;6205697;28;20051;-81
2022/02/05 05:20:58;;;;;;;5.10;1.02;;;3.90;91.20;;;;;;6204366;28;20042;-81
2022/02/05 05:24:01;;;;;;;2.95;0.80;;;4.00;90.90;;;;;;6205020;28;20086;-81
2022/02/05 05:27:03;;;;;;;4.28;1.27;;;4.00;90.90;;;;;;6203363;28;20053;-82
2022/02/05 05:30:08;;;;;;;2.72;1.23;;;4.10;90.80;;;;;;6204236;28;20047;-81
2022/02/05 05:33:10;;;;;;;0.82;0.50;;;4.20;90.60;;;;;;6203103;28;20050;-81
2022/02/05 05:36:12;;;;;;;4.38;1.65;;;4.30;90.70;;;;;;6203609;28;20141;-80
2022/02/05 05:39:14;;;;;;;3.17;1.02;;;4.40;90.30;;;;;;6203979;28;20059;-81
2022/02/05 05:42:20;;;;;;;5.10;1.25;;;4.50;89.90;;;;;;6203407;28;20423;-81
2022/02/05 05:45:36;;;;;;;4.03;1.30;;;4.50;89.30;;;;;;6203714;28;20039;-81
2022/02/05 05:48:54;;;;;;;7.03;1.83;;;4.60;89.10;;;;;;6203923;28;20054;-82
2022/02/05 05:51:56;;;;;;;9.10;1.45;;;4.70;88.90;;;;;;6203843;28;20440;-81
2022/02/05 05:54:58;;;;;;;3.70;1.17;;;4.80;87.80;;;;;;6203764;28;20054;-81
2022/02/05 05:58:01;;;;;;;4.88;1.73;;;4.80;87.70;;;;;;6204429;28;20046;-81
2022/02/05 06:01:04;;;;;;;2.13;1.20;;;4.90;87.30;;;;;;6204575;28;20046;-82
2022/02/05 06:04:06;;;;;;;3.83;2.80;;;5.00;87.50;;;;;;6206819;28;20141;-81
2022/02/05 06:07:08;;;;;;;2.60;1.13;;;5.10;86.80;;;;;;6205968;28;20133;-81
2022/02/05 06:10:10;;;;;;;3.08;1.05;;;5.10;86.70;;;;;;6205551;28;20117;-81
2022/02/05 06:13:12;;;;;;;11.80;2.80;;;5.20;86.60;;;;;;6204568;28;20097;-82
2022/02/05 06:16:18;;;;;;;5.90;1.10;;;5.20;85.70;;;;;;6204826;28;20058;-81
2022/02/05 06:19:20;;;;;;;3.92;1.05;;;5.20;85.60;;;;;;6202652;28;20053;-80
2022/02/05 06:22:22;;;;;;;5.68;1.60;;;5.20;85.40;;;;;;6200481;28;20069;-80
2022/02/05 06:25:24;;;;;;;3.70;0.73;;;5.20;85.60;;;;;;6200041;28;20057;-80
2022/02/05 06:28:26;;;;;;;1.63;0.70;;;5.20;85.30;;;;;;6200429;28;20054;-80
2022/02/05 06:31:29;;;;;;;5.55;0.80;;;5.20;85.10;;;;;;6200087;28;20046;-80
2022/02/05 06:34:31;;;;;;;4.00;1.60;;;5.20;85.30;;;;;;6199573;28;20073;-80
2022/02/05 06:37:32;;;;;;;15.00;6.82;;;5.20;85.20;;;;;;6200221;28;20173;-80
2022/02/05 06:40:34;;;;;;;2.55;1.15;;;5.10;85.20;;;;;;6200373;28;20050;-80
2022/02/05 06:43:36;;;;;;;13.43;1.52;;;5.10;85.00;;;;;;6199996;28;20508;-80
2022/02/05 06:46:40;;;;;;;15.32;4.20;;;5.00;85.50;;;;;;6199523;28;20050;-81
2022/02/05 06:49:41;;;;;;;10.00;2.63;;;5.10;85.50;;;;;;6199656;28;20426;-79
2022/02/05 06:52:44;;;;;;;8.02;3.08;;;5.10;85.40;;;;;;6200384;28;20056;-80
2022/02/05 06:55:46;;;;;;;3.58;1.15;;;5.10;85.40;;;;;;6199249;28;20047;-80
2022/02/05 06:58:48;;;;;;;3.67;0.95;;;5.00;85.50;;;;;;6198993;28;20054;-80
2022/02/05 07:01:51;;;;;;;6.53;2.42;;;5.00;85.50;;;;;;6199187;28;20132;-79
2022/02/05 07:04:53;;;;;;;6.10;2.35;;;4.90;85.80;;;;;;6199406;28;20046;-78
2022/02/05 07:07:55;;;;;;;6.82;2.00;;;4.90;85.90;;;;;;6198775;28;20133;-80
2022/02/05 07:10:57;;;;;;;8.45;1.55;;;4.90;86.00;;;;;;6199326;28;20102;-79
2022/02/05 07:13:59;;;;;;;3.88;1.02;;;5.00;86.20;;;;;;6204232;28;20060;-80
2022/02/05 07:17:08;;;;;;;1.95;0.75;;;5.10;85.90;;;;;;6204250;28;20052;-80
2022/02/05 07:20:19;;;;;;;13.27;1.55;;;5.10;85.90;;;;;;6204114;28;20081;-80
2022/02/05 07:23:40;;;;;;;5.85;0.93;;;5.10;85.70;;;;;;6203717;28;20049;-80
2022/02/05 07:30:01;;;;;;;10.07;2.08;;;5.20;85.50;;;;;;6203458;28;20043;-80
2022/02/05 07:33:04;;;;;;;3.83;0.98;;;5.20;85.20;;;;;;6203491;28;20169;-80
2022/02/05 07:36:06;;;;;;;6.13;1.10;;;5.10;85.50;;;;;;6203533;28;20086;-79
2022/02/05 07:39:09;;;;;;;2.58;0.95;;;5.20;85.00;;;;;;6203413;28;20129;-80
2022/02/05 07:42:11;;;;;;;5.60;1.10;;;5.20;85.00;;;;;;6205226;28;20523;-80
2022/02/05 07:45:13;;;;;;;3.30;1.60;;;5.30;84.40;;;;;;6207551;28;20080;-80
2022/02/05 07:48:16;;;;;;;1.95;1.25;;;5.40;84.30;;;;;;6208499;28;20146;-80
2022/02/05 07:51:17;;;;;;;4.82;0.85;;;5.40;84.20;;;;;;6207180;28;20070;-80
2022/02/05 07:54:19;;;;;;;7.78;1.33;;;5.60;84.00;;;;;;6207873;28;20056;-80
2022/02/05 07:57:21;;;;;;;5.38;1.00;;;5.60;83.50;;;;;;6209283;28;20524;-80
2022/02/05 08:00:23;;;;;;;9.93;1.13;;;5.70;83.90;;;;;;6208997;28;20046;-80
2022/02/05 08:03:26;;;;;;;1.50;0.70;;;5.80;83.00;;;;;;6208736;28;20046;-80
2022/02/05 08:06:27;;;;;;;14.27;3.00;;;5.90;82.60;;;;;;6207274;28;20049;-80
2022/02/05 08:09:43;;;;;;;2.95;1.10;;;5.90;82.40;;;;;;6208203;28;20062;-80
2022/02/05 08:12:50;;;;;;;3.90;1.10;;;5.90;82.80;;;;;;6208320;28;20046;-80
2022/02/05 08:15:55;;;;;;;5.72;1.00;;;6.00;82.50;;;;;;6207499;28;20617;-80
2022/02/05 08:18:59;;;;;;;8.88;1.67;;;6.10;82.30;;;;;;6207104;28;20050;-80
2022/02/05 08:22:00;;;;;;;9.20;1.45;;;6.20;81.80;;;;;;6207373;28;20057;-80
2022/02/05 08:25:02;;;;;;;3.90;1.42;;;6.30;81.70;;;;;;6207989;28;20060;-80
2022/02/05 08:28:04;;;;;;;6.97;1.35;;;6.40;81.10;;;;;;6208409;28;20065;-80
2022/02/05 08:31:07;;;;;;;2.65;1.33;;;6.40;80.20;;;;;;6208541;28;20070;-80
2022/02/05 08:34:10;;;;;;;2.53;1.40;;;6.50;80.50;;;;;;6208695;28;20058;-80
2022/02/05 08:37:12;;;;;;;7.63;0.90;;;6.60;80.30;;;;;;6209119;28;20419;-80
2022/02/05 08:40:16;;;;;;;1.20;0.73;;;6.70;79.50;;;;;;6208365;28;20086;-80
2022/02/05 08:43:18;;;;;;;1.52;0.98;;;6.70;78.90;;;;;;6208207;28;20054;-80
2022/02/05 08:46:20;;;;;;;6.85;2.22;;;6.70;79.30;;;;;;6207403;28;20046;-80
2022/02/05 08:49:23;;;;;;;5.45;1.40;;;6.80;79.10;;;;;;6208219;28;20053;-80
2022/02/05 08:52:26;;;;;;;10.13;1.65;;;6.80;78.40;;;;;;6205808;28;20046;-80
2022/02/05 08:55:30;;;;;;;6.03;1.35;;;6.90;78.50;;;;;;6206349;28;20182;-80
2022/02/05 08:58:32;;;;;;;2.10;1.10;;;6.90;78.10;;;;;;6206333;28;20267;-79
2022/02/05 09:01:46;;;;;;;3.50;1.15;;;7.10;78.00;;;;;;6206711;28;20053;-80
2022/02/05 09:04:56;;;;;;;2.58;1.10;;;7.30;76.70;;;;;;6207429;28;20062;-80
2022/02/05 09:07:58;;;;;;;4.22;1.10;;;7.40;76.50;;;;;;6209672;28;20050;-80
2022/02/05 09:11:12;;;;;;;7.45;1.20;;;7.70;75.60;;;;;;6182056;28;20046;-81
2022/02/05 09:14:30;;;;;;;3.72;1.10;;;7.80;76.10;;;;;;6207265;28;20109;-80
2022/02/05 09:17:32;;;;;;;5.30;1.00;;;8.10;75.00;;;;;;6206259;28;20058;-81
2022/02/05 09:20:35;;;;;;;2.75;0.60;;;8.20;74.60;;;;;;6209446;28;20041;-80
2022/02/05 09:23:40;;;;;;;4.18;1.23;;;8.20;73.80;;;;;;6198905;28;20472;-80
2022/02/05 09:26:44;;;;;;;6.40;1.23;;;8.40;74.00;;;;;;6204363;28;20050;-80
2022/02/05 09:29:59;;;;;;;1.85;0.88;;;8.60;73.00;;;;;;6205517;28;20069;-82
2022/02/05 09:33:01;;;;;;;4.78;1.00;;;8.80;71.80;;;;;;6198575;28;20043;-82
2022/02/05 09:36:05;;;;;;;3.38;0.80;;;9.20;71.00;;;;;;6207774;28;20054;-82
2022/02/05 09:39:08;;;;;;;6.88;1.00;;;9.60;68.80;;;;;;6206990;28;20137;-82
2022/02/05 09:42:11;;;;;;;2.25;1.67;;;9.90;67.80;;;;;;6205575;28;20046;-82
2022/02/05 09:45:13;;;;;;;2.53;1.10;;;10.10;66.70;;;;;;6216015;28;20050;-82
2022/02/05 09:48:33;;;;;;;5.50;0.93;;;10.20;65.20;;;;;;6206139;28;20046;-83
2022/02/05 09:51:45;;;;;;;2.03;0.80;;;10.40;65.00;;;;;;6205379;28;20042;-82
2022/02/05 09:54:47;;;;;;;7.20;1.05;;;10.70;64.00;;;;;;6206716;28;20411;-84
2022/02/05 09:57:49;;;;;;;4.55;0.98;;;10.70;61.20;;;;;;6205993;28;20050;-83
2022/02/05 10:01:02;;;;;;;3.95;0.98;;;10.90;62.80;;;;;;6206773;28;20619;-84
2022/02/05 10:04:07;;;;;;;5.88;0.90;;;11.10;61.20;;;;;;6206542;28;20464;-83
2022/02/05 10:07:10;;;;;;;2.50;0.82;;;11.40;61.10;;;;;;6201826;28;20140;-82
2022/02/05 10:10:12;;;;;;;3.67;0.77;;;11.70;60.10;;;;;;6206388;28;20109;-82
2022/02/05 10:13:19;;;;;;;4.50;1.65;;;12.00;60.10;;;;;;6210021;28;20069;-82
2022/02/05 10:16:30;;;;;;;3.05;0.90;;;12.30;58.70;;;;;;6222602;28;20046;-82
2022/02/05 10:19:46;;;;;;;4.75;1.55;;;12.50;58.10;;;;;;6229076;28;20046;-82
2022/02/05 10:22:49;;;;;;;4.07;1.10;;;12.60;56.90;;;;;;6229100;28;20054;-82
2022/02/05 10:25:53;;;;;;;8.57;1.27;;;12.70;57.00;;;;;;6229566;28;20057;-82
2022/02/05 10:28:59;;;;;;;5.93;0.95;;;13.10;56.60;;;;;;6229632;28;20086;-84
2022/02/05 10:32:08;;;;;;;5.30;0.80;;;13.20;55.50;;;;;;6229645;28;20150;-82
2022/02/05 10:35:23;;;;;;;2.40;1.35;;;13.40;55.50;;;;;;6228972;28;20113;-82
2022/02/05 10:38:51;;;;;;;8.25;1.73;;;13.40;54.40;;;;;;6229497;28;20176;-82
2022/02/05 10:45:21;;;;;;;4.78;0.93;;;13.30;54.40;;;;;;6176742;28;20046;-83
2022/02/05 10:48:25;;;;;;;4.47;0.82;;;13.10;55.20;;;;;;6229525;28;20057;-82
2022/02/05 10:51:43;;;;;;;5.38;1.35;;;13.00;56.00;;;;;;6228995;28;20115;-82
2022/02/05 10:55:01;;;;;;;3.45;1.10;;;12.70;55.20;;;;;;6228171;28;20488;-82
2022/02/05 10:58:20;;;;;;;4.82;1.10;;;12.10;57.10;;;;;;6229940;28;20046;-82
2022/02/05 11:08:02;;;;;;;13.40;1.00;;;11.70;59.30;;;;;;6229367;28;20054;-82
2022/02/05 11:21:04;;;;;;;5.07;1.00;;;12.30;58.50;;;;;;6179237;28;20106;-81
2022/02/05 11:24:08;;;;;;;5.85;2.00;;;12.70;56.90;;;;;;6186035;28;20162;-81
2022/02/05 11:27:12;;;;;;;5.38;1.50;;;12.80;56.30;;;;;;6190497;28;20038;-81
2022/02/05 11:30:36;;;;;;;5.85;1.20;;;12.90;55.40;;;;;;6205896;28;20439;-82
2022/02/05 11:33:38;;;;;;;5.00;1.90;;;13.10;56.50;;;;;;6205282;28;20496;-82
2022/02/05 11:36:40;;;;;;;4.18;1.17;;;13.30;55.20;;;;;;6205151;28;20069;-82
2022/02/05 11:39:47;;;;;;;3.90;0.95;;;13.60;54.20;;;;;;6205439;28;20051;-82
2022/02/05 11:43:15;;;;;;;3.72;1.10;;;13.90;53.00;;;;;;6206209;28;20102;-82
2022/02/05 11:46:18;;;;;;;11.40;1.75;;;13.90;52.40;;;;;;6215378;28;20113;-82
2022/02/05 11:49:20;;;;;;;4.80;2.40;;;14.10;53.00;;;;;;6204851;28;20049;-82
2022/02/05 11:52:57;;;;;;;2.70;1.40;;;14.20;52.30;;;;;;6205606;28;20052;-81
2022/02/05 11:56:14;;;;;;;3.72;1.45;;;14.40;51.40;;;;;;6205259;28;20050;-83
2022/02/05 11:59:18;;;;;;;3.20;0.90;;;14.60;51.20;;;;;;6204547;28;20058;-82
2022/02/05 12:02:22;;;;;;;5.35;0.77;;;14.70;51.60;;;;;;6202992;28;20093;-83
2022/02/05 12:05:28;;;;;;;6.22;0.93;;;14.80;50.70;;;;;;6204518;28;20132;-82
2022/02/05 12:08:33;;;;;;;3.45;1.17;;;14.70;49.90;;;;;;6205157;28;20065;-82
2022/02/05 12:11:35;;;;;;;11.93;1.60;;;14.70;50.00;;;;;;6203943;28;20039;-84
2022/02/05 12:14:38;;;;;;;4.53;1.30;;;14.70;49.70;;;;;;6213412;28;20118;-82
2022/02/05 12:18:08;;;;;;;5.78;1.30;;;14.50;49.20;;;;;;6205903;28;20046;-83
2022/02/05 12:21:13;;;;;;;4.25;0.80;;;14.40;50.20;;;;;;6207771;28;20142;-83
2022/02/05 12:27:36;;;;;;;4.90;1.45;;;14.60;50.20;;;;;;6205927;28;20043;-82
2022/02/05 12:30:42;;;;;;;7.13;1.75;;;14.70;49.30;;;;;;6207470;28;20070;-82
2022/02/05 12:33:45;;;;;;;8.95;1.88;;;14.60;48.00;;;;;;6206345;28;20125;-82
2022/02/05 12:36:50;;;;;;;2.53;0.98;;;14.50;49.10;;;;;;6206076;28;20138;-81
2022/02/05 12:39:54;;;;;;;3.22;1.10;;;14.50;49.00;;;;;;6206074;28;20057;-81
2022/02/05 12:42:57;;;;;;;10.38;0.95;;;14.30;48.90;;;;;;6207765;28;20042;-81
2022/02/05 12:46:09;;;;;;;5.15;0.70;;;14.30;48.70;;;;;;6220635;28;20128;-81
2022/02/05 12:49:17;;;;;;;5.70;0.93;;;14.40;49.30;;;;;;6206673;28;20061;-82
2022/02/05 12:52:25;;;;;;;3.22;0.82;;;14.50;48.40;;;;;;6207166;28;20054;-84
2022/02/05 12:55:27;;;;;;;5.57;0.90;;;14.40;47.90;;;;;;6204884;28;20120;-82
2022/02/05 12:58:29;;;;;;;3.13;0.68;;;14.40;49.20;;;;;;6206533;28;20050;-82
2022/02/05 13:01:37;;;;;;;7.50;1.23;;;14.50;48.80;;;;;;6204635;28;20179;-82
2022/02/05 13:04:40;;;;;;;5.05;1.33;;;14.60;49.10;;;;;;6205601;28;20196;-82
2022/02/05 13:07:42;;;;;;;7.20;1.20;;;14.70;48.40;;;;;;6202759;28;20125;-82
2022/02/05 13:10:46;;;;;;;4.43;1.05;;;14.60;48.40;;;;;;6181467;28;20051;-81
2022/02/05 13:13:53;;;;;;;6.55;1.20;;;14.40;49.10;;;;;;6198253;28;20046;-80
2022/02/05 13:16:56;;;;;;;6.23;1.20;;;14.40;50.00;;;;;;6221829;28;20220;-80
2022/02/05 13:27:10;;;;;;;3.88;0.95;;;13.90;49.60;;;;;;6212221;28;20452;-82
2022/02/05 13:33:41;;;;;;;9.25;3.45;;;13.30;50.40;;;;;;6205638;28;20046;-81
2022/02/05 13:36:52;;;;;;;15.25;6.88;;;12.90;51.90;;;;;;6205554;28;20057;-81
2022/02/05 13:40:01;;;;;;;5.75;0.85;;;12.70;52.20;;;;;;6201608;28;20065;-81
2022/02/05 13:43:10;;;;;;;10.70;2.22;;;12.40;52.60;;;;;;6208129;28;20049;-81
2022/02/05 13:46:13;;;;;;;27.73;11.88;;;12.00;53.60;;;;;;6213219;28;20049;-81
2022/02/05 13:49:19;;;;;;;18.05;8.68;;;11.70;54.90;;;;;;6203994;28;20129;-80
2022/02/05 13:52:20;;;;;;;25.92;12.85;;;11.60;55.60;;;;;;6204882;28;20046;-81
2022/02/05 13:55:24;;;;;;;14.50;8.68;;;11.40;55.70;;;;;;6203406;28;20046;-80
2022/02/05 13:58:36;;;;;;;6.30;0.95;;;11.20;55.60;;;;;;6202590;28;20522;-80
2022/02/05 14:01:38;;;;;;;2.45;0.73;;;11.10;56.00;;;;;;6203169;28;20173;-80
2022/02/05 14:04:41;;;;;;;3.03;0.82;;;10.80;56.30;;;;;;6203838;28;20144;-80
2022/02/05 14:07:44;;;;;;;3.63;0.93;;;10.90;56.70;;;;;;6203231;28;20493;-79
2022/02/05 14:10:55;;;;;;;4.53;1.00;;;10.80;57.50;;;;;;6201849;28;20049;-80
2022/02/05 14:13:58;;;;;;;11.57;1.67;;;10.90;56.80;;;;;;6210444;28;20053;-80
2022/02/05 14:17:01;;;;;;;5.32;1.40;;;10.90;57.10;;;;;;6210428;28;20047;-80
2022/02/05 14:20:09;;;;;;;4.57;0.90;;;10.80;57.10;;;;;;6203276;28;20128;-80
2022/02/05 14:23:13;;;;;;;8.00;1.10;;;10.70;57.50;;;;;;6202544;28;20112;-80
2022/02/05 14:26:18;;;;;;;4.00;0.52;;;10.60;58.10;;;;;;6201288;28;20057;-80
2022/02/05 14:29:21;;;;;;;1.85;0.50;;;10.40;58.50;;;;;;6200342;28;20053;-80
2022/02/05 14:32:29;;;;;;;4.88;0.85;;;10.40;58.70;;;;;;6201497;28;20049;-80
2022/02/05 14:36:10;;;;;;;9.82;1.08;;;10.30;59.00;;;;;;6201601;28;20137;-82
2022/02/05 14:42:34;;;;;;;2.92;1.88;;;10.20;59.30;;;;;;6202736;28;20046;-80
2022/02/05 14:45:36;;;;;;;4.10;1.08;;;10.20;59.70;;;;;;6210448;28;20128;-82
2022/02/05 14:48:37;;;;;;;5.40;1.10;;;10.10;60.20;;;;;;6202064;28;20106;-81
2022/02/05 14:51:41;;;;;;;5.63;1.25;;;10.20;60.30;;;;;;6200964;28;20486;-80
2022/02/05 14:54:43;;;;;;;6.50;1.30;;;10.10;60.60;;;;;;6199842;28;20144;-79
2022/02/05 14:57:45;;;;;;;9.77;1.75;;;10.20;61.10;;;;;;6204841;28;20065;-81
2022/02/05 15:00:47;;;;;;;4.22;1.00;;;10.30;60.90;;;;;;6202624;28;20078;-81
2022/02/05 15:03:48;;;;;;;7.72;2.00;;;10.40;60.90;;;;;;6202033;28;20043;-80
2022/02/05 15:06:51;;;;;;;7.00;1.23;;;10.50;61.40;;;;;;6200962;28;20050;-80
2022/02/05 15:09:53;;;;;;;6.40;1.35;;;10.70;61.40;;;;;;6200666;28;20042;-80
2022/02/05 15:12:55;;;;;;;3.58;1.30;;;10.90;61.20;;;;;;6202858;28;20061;-80
2022/02/05 15:16:01;;;;;;;6.30;1.75;;;11.00;60.30;;;;;;6218076;28;20056;-81
2022/02/05 15:19:04;;;;;;;3.13;1.65;;;11.10;59.90;;;;;;6211760;28;20176;-82
2022/02/05 15:22:07;;;;;;;18.27;6.85;;;11.30;59.50;;;;;;6202801;28;20193;-81
2022/02/05 15:25:11;;;;;;;8.48;2.17;;;11.40;59.20;;;;;;6200725;28;20424;-81
2022/02/05 15:28:13;;;;;;;5.93;1.10;;;11.30;58.50;;;;;;6201586;28;20050;-80
2022/02/05 15:31:15;;;;;;;4.55;1.08;;;11.30;58.60;;;;;;6201309;28;20136;-80
2022/02/05 15:34:17;;;;;;;7.90;1.02;;;11.30;58.90;;;;;;6201982;28;20053;-81
2022/02/05 15:37:23;;;;;;;7.70;1.55;;;11.30;58.90;;;;;;6200643;28;20046;-81
2022/02/05 15:43:27;;;;;;;3.63;1.20;;;11.20;59.10;;;;;;6201851;28;20050;-80
2022/02/05 15:43:52;;;;;;;5.53;1.65;;;11.20;59.20;;;;;;6206506;28;20042;-79
2022/02/05 15:46:54;;;;;;;4.00;1.50;;;11.20;59.30;;;;;;6217811;28;20041;-79
2022/02/05 15:49:56;;;;;;;3.15;0.82;;;11.20;59.60;;;;;;6201289;28;20397;-80
2022/02/05 15:53:00;;;;;;;4.13;1.27;;;11.20;59.80;;;;;;6198939;28;20169;-80
2022/02/05 15:56:03;;;;;;;3.60;0.88;;;11.00;60.00;;;;;;6199454;28;20047;-81
2022/02/05 15:59:09;;;;;;;2.78;0.95;;;11.00;60.10;;;;;;6198960;28;20544;-79
2022/02/05 16:02:11;;;;;;;2.15;0.75;;;10.80;60.10;;;;;;6200334;28;20146;-79
2022/02/05 16:05:13;;;;;;;9.07;1.20;;;10.70;60.90;;;;;;6202698;28;20054;-79
2022/02/05 16:08:16;;;;;;;5.40;1.33;;;10.60;61.40;;;;;;6203887;28;20104;-80
2022/02/05 16:11:19;;;;;;;3.63;0.68;;;10.50;61.60;;;;;;6202398;28;20528;-79
2022/02/05 16:14:21;;;;;;;2.45;0.73;;;10.40;62.10;;;;;;6210409;28;20504;-79
2022/02/05 16:17:22;;;;;;;11.23;3.78;;;10.30;62.50;;;;;;6225072;28;20419;-79
2022/02/05 16:20:24;;;;;;;1.98;0.63;;;10.20;62.80;;;;;;6227137;28;20054;-79
2022/02/05 16:23:27;;;;;;;2.58;0.88;;;10.10;63.00;;;;;;6229653;28;20048;-80
2022/02/05 16:26:29;;;;;;;4.55;1.10;;;9.80;63.50;;;;;;6230591;28;20191;-79
2022/02/05 16:29:31;;;;;;;6.78;1.40;;;9.70;64.30;;;;;;6230432;28;20448;-79
2022/02/05 16:32:33;;;;;;;7.70;2.97;;;9.60;64.90;;;;;;6237944;28;20053;-80
2022/02/05 16:35:43;;;;;;;10.95;5.80;;;9.60;65.20;;;;;;6235415;28;20536;-80
2022/02/05 16:38:53;;;;;;;14.38;2.55;;;9.60;65.40;;;;;;6235221;28;20050;-82
2022/02/05 16:41:56;;;;;;;10.90;3.13;;;9.60;66.20;;;;;;6233933;28;20052;-80
2022/02/05 16:44:58;;;;;;;9.13;3.30;;;9.60;65.60;;;;;;6224624;28;20504;-81
2022/02/05 16:47:59;;;;;;;4.97;1.60;;;9.60;65.80;;;;;;6235457;28;20049;-81
2022/02/05 16:51:02;;;;;;;10.43;2.10;;;9.60;66.20;;;;;;6211829;28;20038;-81
2022/02/05 16:54:06;;;;;;;11.55;2.33;;;9.50;66.80;;;;;;6210541;28;20065;-80
2022/02/05 16:57:08;;;;;;;4.40;2.10;;;9.50;68.20;;;;;;6211230;28;20113;-81
2022/02/05 17:00:11;;;;;;;15.90;2.10;;;9.40;69.20;;;;;;6208833;28;20054;-81
2022/02/05 17:03:13;;;;;;;19.90;11.10;;;9.20;70.20;;;;;;6206965;28;20042;-81
2022/02/05 17:06:14;;;;;;;123.43;54.65;;;9.20;71.20;;;;;;6210581;28;20058;-82
2022/02/05 17:09:17;;;;;;;68.63;24.98;;;9.10;71.90;;;;;;6210617;28;20042;-80
2022/02/05 17:12:20;;;;;;;80.25;25.98;;;9.10;72.60;;;;;;6210205;28;20061;-81
2022/02/05 17:15:23;;;;;;;42.28;15.60;;;9.10;72.70;;;;;;6221479;28;20042;-81
2022/02/05 17:18:27;;;;;;;22.80;11.20;;;9.00;72.70;;;;;;6217024;28;20054;-81
2022/02/05 17:21:29;;;;;;;18.83;6.88;;;9.00;72.70;;;;;;6212249;28;20050;-82
2022/02/05 17:24:32;;;;;;;7.85;4.85;;;9.00;72.90;;;;;;6210629;28;20061;-82
2022/02/05 17:27:34;;;;;;;10.00;4.38;;;9.00;73.10;;;;;;6211711;28;20114;-81
2022/02/05 17:30:36;;;;;;;8.43;3.03;;;9.00;74.50;;;;;;6209928;28;20058;-81
2022/02/05 17:33:38;;;;;;;10.30;2.17;;;8.90;73.90;;;;;;6212225;28;20053;-81
2022/02/05 17:36:40;;;;;;;6.03;1.50;;;8.90;74.00;;;;;;6211181;28;20050;-81
2022/02/05 17:39:44;;;;;;;6.05;2.25;;;8.80;74.50;;;;;;6211446;28;20515;-81
2022/02/05 17:42:46;;;;;;;12.75;3.10;;;8.80;74.70;;;;;;6212500;28;20039;-82
2022/02/05 17:45:48;;;;;;;12.15;2.50;;;8.60;74.70;;;;;;6226858;28;20056;-81
2022/02/05 17:48:50;;;;;;;10.43;2.70;;;8.50;74.70;;;;;;6236564;28;20114;-81
2022/02/05 17:51:52;;;;;;;5.57;2.17;;;8.30;74.70;;;;;;6216707;28;20121;-80
2022/02/05 17:54:56;;;;;;;10.50;3.15;;;8.20;76.20;;;;;;6210622;28;20050;-80
2022/02/05 17:58:00;;;;;;;5.85;1.98;;;8.10;75.90;;;;;;6213902;28;20046;-80